Navaho — 9HNR6 — position and weather

sailwx.info

Track history (hours):
 
Tides and Currents Weather Stations Pressure Air Temp Water Temp Dewpoint Dewpoint Depression Visibility Wind Speed Wind Dir Waves Ship Positions

Navaho

Last reported at 2017-Nov-15 04:11 UTC. Time now 2017-Nov-22 22:04 UTC.
Position N 39°49' E 025°42'.

Length 140 m; draft 3.8 m.

Type: Cargo ship. MMSI: 248681000.

Date/timePositionNaut miles runAvg speedWind from/ knotsBaromVisibWave heightAir tempDewpointWater temp
2017-Nov-15 04:11N 39°49' E 025°42'1 7.2
2017-Nov-15 04:00N 39°50' E 025°43'  
2017-Nov-11 15:39N 45°11' E 036°28'1 7.8
2017-Nov-11 15:30N 45°12' E 036°28'4 7.5
2017-Nov-11 15:00N 45°16' E 036°28'4 7.5
2017-Nov-11 14:31N 45°19' E 036°32'5 9.1
2017-Nov-11 14:01N 45°21' E 036°38'4 7.0
2017-Nov-11 13:31N 45°24' E 036°40'3 6.3
2017-Nov-11 13:00N 45°27' E 036°41'  
Track history (hours):
 
Tides and Currents Weather Stations Pressure Air Temp Water Temp Dewpoint Dewpoint Depression Visibility Wind Speed Wind Dir Waves Ship Positions

Navaho

Last reported at 2017-Nov-15 04:11 UTC. Time now 2017-Nov-22 22:04 UTC.
Position N 39°49' E 025°42'.

Length 140 m; draft 3.8 m.

Type: Cargo ship. MMSI: 248681000.

Date/timePositionNaut miles runAvg speedWind from/ knotsBaromVisibWave heightAir tempDewpointWater temp
2017-Nov-15 04:11N 39°49' E 025°42'1 7.2
2017-Nov-15 04:00N 39°50' E 025°43'  
2017-Nov-11 15:39N 45°11' E 036°28'1 7.8
2017-Nov-11 15:30N 45°12' E 036°28'4 7.5
2017-Nov-11 15:00N 45°16' E 036°28'4 7.5
2017-Nov-11 14:31N 45°19' E 036°32'5 9.1
2017-Nov-11 14:01N 45°21' E 036°38'4 7.0
2017-Nov-11 13:31N 45°24' E 036°40'3 6.3
2017-Nov-11 13:00N 45°27' E 036°41'  

Dump ship's entire track history